createdAt,value
2023-01-02T00:00:42.983Z,2.68
2023-01-02T00:02:14.397Z,3.14
2023-01-02T00:03:45.875Z,2.84
2023-01-02T00:05:17.356Z,2.60
2023-01-02T00:06:48.805Z,2.90
2023-01-02T00:08:20.163Z,2.57
2023-01-02T00:09:51.484Z,2.80
2023-01-02T00:11:22.862Z,2.76
2023-01-02T00:12:54.183Z,3.05
2023-01-02T00:14:25.640Z,3.32
2023-01-02T00:15:57.069Z,2.94
2023-01-02T00:17:28.521Z,2.92
2023-01-02T00:18:59.854Z,2.52
2023-01-02T00:20:31.195Z,2.82
2023-01-02T00:22:02.520Z,2.90
2023-01-02T00:23:33.981Z,2.75
2023-01-02T00:25:05.371Z,3.02
2023-01-02T00:26:36.801Z,2.90
2023-01-02T00:28:08.607Z,3.17
2023-01-02T00:29:40.052Z,2.84
2023-01-02T00:31:17.009Z,3.14
2023-01-02T00:32:48.774Z,3.14
2023-01-02T00:34:20.077Z,3.29
2023-01-02T00:35:51.438Z,2.98
2023-01-02T00:37:22.783Z,2.79
2023-01-02T00:38:54.212Z,3.06
2023-01-02T00:40:25.564Z,2.86
2023-01-02T00:41:56.894Z,2.70
2023-01-02T00:43:28.605Z,2.85
2023-01-02T00:44:59.982Z,3.11
2023-01-02T00:46:31.409Z,2.75
2023-01-02T00:48:02.732Z,2.55
2023-01-02T00:49:34.151Z,2.99
2023-01-02T00:51:05.504Z,3.03
2023-01-02T00:52:36.858Z,3.13
2023-01-02T00:54:13.530Z,3.12
2023-01-02T00:55:45.203Z,3.25
2023-01-02T00:57:16.561Z,2.77
2023-01-02T00:58:48.000Z,2.92
2023-01-02T01:00:23.884Z,2.81
2023-01-02T01:01:55.820Z,3.03
2023-01-02T01:03:27.386Z,2.84
2023-01-02T01:04:58.804Z,3.06
2023-01-02T01:06:30.600Z,3.16
2023-01-02T01:08:02.141Z,3.53
2023-01-02T01:09:33.553Z,3.57
2023-01-02T01:11:05.017Z,2.95
2023-01-02T01:12:36.400Z,3.28
2023-01-02T01:14:07.848Z,3.60
2023-01-02T01:15:39.556Z,3.55
2023-01-02T01:17:11.041Z,3.69
2023-01-02T01:18:42.442Z,3.20
2023-01-02T01:20:13.804Z,3.26
2023-01-02T01:21:45.269Z,3.04
2023-01-02T01:23:16.769Z,3.39
2023-01-02T01:24:48.432Z,3.47
2023-01-02T01:26:20.065Z,3.64
2023-01-02T01:27:51.404Z,3.35
2023-01-02T01:29:23.171Z,3.13
2023-01-02T01:30:54.809Z,3.52
2023-01-02T01:32:27.302Z,3.29
2023-01-02T01:33:58.967Z,3.71
2023-01-02T01:35:30.375Z,3.53
2023-01-02T01:37:02.120Z,4.01
2023-01-02T01:38:33.440Z,4.10
2023-01-02T01:40:04.811Z,3.63
2023-01-02T01:41:36.122Z,3.84
2023-01-02T01:43:07.439Z,3.49
2023-01-02T01:44:38.784Z,3.97
2023-01-02T01:46:10.259Z,3.60
2023-01-02T01:47:41.733Z,3.39
2023-01-02T01:49:13.261Z,3.54
2023-01-02T01:50:44.718Z,3.49
2023-01-02T01:52:16.158Z,3.43
2023-01-02T01:53:47.761Z,3.56
2023-01-02T01:55:19.336Z,3.63
2023-01-02T01:56:50.676Z,3.22
2023-01-02T01:58:22.275Z,3.53
2023-01-02T01:59:53.939Z,3.32
2023-01-02T02:01:25.497Z,3.41
2023-01-02T02:02:57.273Z,3.35
2023-01-02T02:04:29.121Z,3.16
2023-01-02T02:06:00.745Z,3.16
2023-01-02T02:07:32.091Z,3.11
2023-01-02T02:09:03.407Z,2.89
2023-01-02T02:10:34.779Z,3.04
2023-01-02T02:12:06.123Z,3.07
2023-01-02T02:13:37.591Z,2.70
2023-01-02T02:15:09.225Z,3.55
2023-01-02T02:16:41.027Z,3.22
2023-01-02T02:18:12.440Z,3.13
2023-01-02T02:19:44.134Z,3.27
2023-01-02T02:21:15.634Z,3.08
2023-01-02T02:22:47.365Z,3.29
2023-01-02T02:24:18.913Z,3.00
2023-01-02T02:25:50.588Z,3.25
2023-01-02T02:27:21.955Z,3.28
2023-01-02T02:28:53.375Z,3.09
2023-01-02T02:30:29.786Z,3.24
2023-01-02T02:32:01.512Z,3.17
2023-01-02T02:33:33.155Z,3.44
2023-01-02T02:35:04.662Z,3.24
2023-01-02T02:36:36.111Z,3.32
2023-01-02T02:38:07.801Z,3.07
2023-01-02T02:39:39.185Z,2.87
2023-01-02T02:41:10.762Z,3.03
2023-01-02T02:42:42.052Z,2.88
2023-01-02T02:44:13.529Z,3.09
2023-01-02T02:45:44.856Z,3.19
2023-01-02T02:47:16.504Z,3.02
2023-01-02T02:48:47.751Z,3.26
2023-01-02T02:50:19.193Z,3.01
2023-01-02T02:51:50.636Z,3.26
2023-01-02T02:53:26.988Z,3.02
2023-01-02T02:54:58.296Z,2.86
2023-01-02T02:56:29.639Z,3.02
2023-01-02T02:58:00.950Z,3.27
2023-01-02T02:59:32.496Z,3.22
2023-01-02T03:01:04.047Z,2.91
2023-01-02T03:02:35.606Z,2.87
2023-01-02T03:04:07.139Z,3.14
2023-01-02T03:05:38.605Z,3.12
2023-01-02T03:07:09.999Z,2.68
2023-01-02T03:08:41.350Z,2.90
2023-01-02T03:10:12.735Z,3.12
2023-01-02T03:11:44.284Z,2.86
2023-01-02T03:13:15.830Z,3.05
2023-01-02T03:14:47.279Z,3.07
2023-01-02T03:16:18.991Z,3.11
2023-01-02T03:17:50.360Z,2.74
2023-01-02T03:19:21.686Z,2.89
2023-01-02T03:20:53.038Z,3.04
2023-01-02T03:22:24.472Z,2.97
2023-01-02T03:23:55.950Z,3.15
2023-01-02T03:25:27.509Z,2.74
2023-01-02T03:26:58.935Z,3.05
2023-01-02T03:28:31.485Z,2.99
2023-01-02T03:30:02.727Z,2.70
2023-01-02T03:31:34.192Z,3.52
2023-01-02T03:33:05.715Z,2.94
2023-01-02T03:34:37.338Z,3.26
2023-01-02T03:36:08.836Z,2.89
2023-01-02T03:37:40.280Z,2.95
2023-01-02T03:39:12.301Z,2.93
2023-01-02T03:40:43.799Z,3.07
2023-01-02T03:42:15.396Z,2.96
2023-01-02T03:43:50.141Z,3.07
2023-01-02T03:45:26.392Z,3.47
2023-01-02T03:46:57.792Z,3.75
2023-01-02T03:48:29.522Z,3.30
2023-01-02T03:50:01.029Z,3.73
2023-01-02T03:51:33.072Z,3.31
2023-01-02T03:53:04.680Z,3.61
2023-01-02T03:54:36.248Z,3.42
2023-01-02T03:56:07.861Z,3.76
2023-01-02T03:57:39.189Z,3.27
2023-01-02T03:59:10.757Z,3.31
2023-01-02T04:00:42.361Z,3.52
2023-01-02T04:02:13.907Z,4.17
2023-01-02T04:03:45.312Z,3.73
2023-01-02T04:05:16.754Z,3.45
2023-01-02T04:06:48.161Z,3.52
2023-01-02T04:08:19.743Z,3.52
2023-01-02T04:09:51.147Z,3.79
2023-01-02T04:11:27.607Z,3.36
2023-01-02T04:12:58.923Z,3.37
2023-01-02T04:14:30.567Z,4.16
2023-01-02T04:16:01.932Z,3.57
2023-01-02T04:17:33.672Z,3.94
2023-01-02T04:19:11.125Z,3.71
2023-01-02T04:20:42.852Z,3.68
2023-01-02T04:22:14.193Z,3.64
2023-01-02T04:23:45.716Z,3.62
2023-01-02T04:25:17.136Z,3.44
2023-01-02T04:26:48.433Z,3.84
2023-01-02T04:28:19.771Z,3.47
2023-01-02T04:29:51.207Z,3.72
2023-01-02T04:31:22.704Z,3.81
2023-01-02T04:32:54.380Z,3.20
2023-01-02T04:34:25.683Z,3.83
2023-01-02T04:35:56.952Z,3.82
2023-01-02T04:37:28.262Z,3.46
2023-01-02T04:39:00.148Z,3.35
2023-01-02T04:40:31.440Z,2.90
2023-01-02T04:42:02.731Z,3.20
2023-01-02T04:43:34.004Z,3.57
2023-01-02T04:45:05.354Z,3.43
2023-01-02T04:46:36.739Z,3.48
2023-01-02T04:48:08.249Z,3.46
2023-01-02T04:49:39.614Z,3.31
2023-01-02T04:51:11.037Z,3.12
2023-01-02T04:52:42.397Z,3.17
2023-01-02T04:54:14.924Z,3.21
2023-01-02T04:55:46.754Z,3.14
2023-01-02T04:57:18.278Z,3.05
2023-01-02T04:58:49.641Z,3.21
2023-01-02T05:00:20.932Z,3.41
2023-01-02T05:01:52.739Z,3.45
2023-01-02T05:03:24.096Z,3.54
2023-01-02T05:04:55.524Z,3.33
2023-01-02T05:06:26.822Z,3.33
2023-01-02T05:07:58.130Z,3.36
2023-01-02T05:09:29.479Z,3.32
2023-01-02T05:11:00.899Z,2.94
2023-01-02T05:12:32.837Z,3.02
2023-01-02T05:14:07.554Z,3.01
2023-01-02T05:15:39.355Z,2.68
2023-01-02T05:17:10.761Z,2.96
2023-01-02T05:18:42.234Z,2.95
2023-01-02T05:20:13.811Z,2.82
2023-01-02T05:21:45.201Z,3.31
2023-01-02T05:23:16.515Z,3.02
2023-01-02T05:24:47.930Z,3.35
2023-01-02T05:26:19.291Z,2.85
2023-01-02T05:27:50.873Z,2.52
2023-01-02T05:29:22.460Z,2.47
2023-01-02T05:30:53.876Z,3.01
2023-01-02T05:32:25.132Z,2.96
2023-01-02T05:33:56.569Z,2.94
2023-01-02T05:35:32.553Z,3.12
2023-01-02T05:37:04.959Z,2.58
2023-01-02T05:38:36.733Z,2.46
2023-01-02T05:40:08.069Z,2.65
2023-01-02T05:41:39.610Z,2.86
2023-01-02T05:43:11.066Z,2.58
2023-01-02T05:44:42.382Z,2.82
2023-01-02T05:46:13.778Z,3.12
2023-01-02T05:47:45.197Z,2.72
2023-01-02T05:49:16.514Z,2.93
2023-01-02T05:50:47.839Z,2.81
2023-01-02T05:52:19.155Z,2.83
2023-01-02T05:53:50.500Z,3.06
2023-01-02T05:55:21.864Z,3.00
2023-01-02T05:56:53.183Z,2.83
2023-01-02T05:58:25.546Z,3.11
2023-01-02T05:59:56.920Z,2.86
2023-01-02T06:01:28.338Z,2.89
2023-01-02T06:03:00.131Z,3.25
2023-01-02T06:04:31.552Z,3.07
2023-01-02T06:06:02.869Z,3.30
2023-01-02T06:07:34.615Z,3.09
2023-01-02T06:09:06.132Z,2.78
2023-01-02T06:10:37.580Z,2.85
2023-01-02T06:12:09.019Z,2.65
2023-01-02T06:13:40.358Z,2.92
2023-01-02T06:15:11.707Z,2.96
2023-01-02T06:16:43.466Z,2.38
2023-01-02T06:18:14.864Z,2.83
2023-01-02T06:19:51.903Z,2.89
2023-01-02T06:21:25.285Z,2.67
2023-01-02T06:22:56.804Z,2.46
2023-01-02T06:24:28.188Z,2.56
2023-01-02T06:25:59.635Z,2.85
2023-01-02T06:27:30.928Z,2.48
2023-01-02T06:29:02.345Z,2.85
2023-01-02T06:30:34.026Z,2.50
2023-01-02T06:32:05.575Z,2.74
2023-01-02T06:33:37.040Z,2.75
2023-01-02T06:35:08.471Z,2.52
2023-01-02T06:36:40.098Z,2.58
2023-01-02T06:38:11.529Z,2.58
2023-01-02T06:40:24.320Z,2.69
2023-01-02T06:41:55.651Z,2.69
2023-01-02T06:43:26.901Z,2.37
2023-01-02T06:45:03.495Z,2.58
2023-01-02T06:46:34.805Z,2.52
2023-01-02T06:48:06.107Z,2.76
2023-01-02T06:49:37.479Z,2.33
2023-01-02T06:51:08.996Z,2.25
2023-01-02T06:52:40.759Z,2.47
2023-01-02T06:54:12.209Z,2.31
2023-01-02T06:55:43.550Z,1.85
2023-01-02T06:57:14.862Z,2.24
2023-01-02T06:58:46.755Z,2.04
2023-01-02T07:00:18.102Z,1.83
2023-01-02T07:01:49.637Z,2.00
2023-01-02T07:03:21.280Z,1.96
2023-01-02T07:04:52.591Z,2.36
2023-01-02T07:06:23.970Z,2.24
2023-01-02T07:07:55.479Z,2.28
2023-01-02T07:40:38.458Z,3.00
2023-01-02T07:42:09.671Z,2.82
2023-01-02T07:43:41.864Z,3.37
2023-01-02T07:45:13.110Z,3.03
2023-01-02T07:46:44.428Z,3.09
2023-01-02T07:48:15.972Z,2.68
2023-01-02T07:49:47.290Z,2.58
2023-01-02T07:51:24.545Z,2.64
2023-01-02T07:52:58.288Z,2.75
2023-01-02T07:54:29.602Z,2.77
2023-01-02T07:56:01.012Z,3.17
2023-01-02T07:57:32.360Z,2.72
2023-01-02T07:59:03.751Z,2.99
2023-01-02T08:00:35.133Z,2.71
2023-01-02T08:02:06.627Z,3.02
2023-01-02T08:03:38.113Z,2.72
2023-01-02T08:05:09.465Z,2.86
2023-01-02T08:06:41.005Z,3.16
2023-01-02T08:08:12.412Z,2.79
2023-01-02T08:09:43.881Z,2.85
2023-01-02T08:11:15.285Z,3.17
2023-01-02T08:12:46.736Z,3.09
2023-01-02T08:14:23.211Z,2.96
2023-01-02T08:15:55.346Z,3.58
2023-01-02T08:17:26.666Z,2.96
2023-01-02T08:18:58.061Z,3.02
2023-01-02T08:20:29.352Z,3.20
2023-01-02T08:22:00.828Z,2.99
2023-01-02T08:23:32.272Z,3.28
2023-01-02T08:25:03.620Z,3.13
2023-01-02T08:26:34.966Z,3.33
2023-01-02T08:28:06.279Z,3.25
2023-01-02T08:29:37.629Z,3.40
2023-01-02T08:31:09.085Z,3.23
2023-01-02T08:32:40.498Z,3.17
2023-01-02T08:34:11.825Z,3.24
2023-01-02T08:35:43.156Z,3.53
2023-01-02T08:37:14.478Z,3.20
2023-01-02T08:38:45.743Z,3.88
2023-01-02T08:40:17.074Z,3.41
2023-01-02T08:41:48.634Z,3.46
2023-01-02T08:43:19.958Z,3.50
2023-01-02T08:44:51.262Z,3.58
2023-01-02T08:46:22.819Z,3.83
2023-01-02T08:47:54.280Z,3.59
2023-01-02T08:49:25.590Z,3.64
2023-01-02T08:50:57.006Z,3.57
2023-01-02T08:52:28.368Z,3.41
2023-01-02T08:53:59.633Z,3.56
2023-01-02T08:55:31.182Z,3.95
2023-01-02T08:57:02.525Z,3.32
2023-01-02T08:58:34.089Z,3.34
2023-01-02T09:00:06.692Z,3.44
2023-01-02T09:01:38.185Z,2.82
2023-01-02T09:03:09.953Z,3.40
2023-01-02T09:04:41.533Z,3.44
2023-01-02T09:06:19.726Z,3.48
2023-01-02T09:07:53.135Z,3.71
2023-01-02T09:09:24.641Z,3.05
2023-01-02T09:10:56.163Z,2.73
2023-01-02T09:12:27.510Z,3.55
2023-01-02T09:13:58.821Z,3.24
2023-01-02T09:15:30.223Z,2.76
2023-01-02T09:17:01.584Z,2.50
2023-01-02T09:18:32.924Z,1.78
2023-01-02T09:20:04.486Z,3.22
2023-01-02T09:21:35.957Z,2.47
2023-01-02T09:23:07.372Z,1.71
2023-01-02T09:24:38.690Z,2.06
2023-01-02T09:26:10.000Z,2.22
2023-01-02T09:27:41.497Z,2.09
2023-01-02T09:29:13.038Z,2.54
2023-01-02T09:30:44.372Z,2.34
2023-01-02T09:32:15.776Z,1.77
2023-01-02T09:33:47.204Z,2.85
2023-01-02T09:35:18.533Z,3.08
2023-01-02T09:36:49.847Z,3.10
2023-01-02T09:38:21.294Z,2.90
2023-01-02T09:39:52.620Z,2.42
2023-01-02T09:41:23.975Z,1.67
2023-01-02T09:42:55.498Z,1.24
2023-01-02T09:44:27.207Z,1.52
2023-01-02T09:45:58.587Z,1.33
2023-01-02T09:47:29.872Z,1.18
2023-01-02T09:49:01.230Z,1.09
2023-01-02T09:50:32.931Z,1.02
2023-01-02T09:52:04.280Z,1.27
2023-01-02T09:53:35.631Z,1.03
2023-01-02T09:55:06.910Z,1.06
2023-01-02T09:56:38.198Z,1.20
2023-01-02T09:58:10.911Z,1.15
2023-01-02T09:59:42.479Z,1.22
2023-01-02T10:01:13.892Z,1.11
2023-01-02T10:02:45.262Z,1.01
2023-01-02T10:04:16.716Z,1.12
2023-01-02T10:05:48.286Z,1.17
2023-01-02T10:07:19.577Z,1.21
2023-01-02T10:08:50.793Z,0.98
2023-01-02T10:10:22.148Z,0.74
2023-01-02T10:11:53.450Z,0.73
2023-01-02T10:13:44.125Z,0.69
2023-01-02T10:15:40.131Z,0.76
2023-01-02T10:17:11.497Z,0.95
2023-01-02T10:18:42.926Z,0.96
2023-01-02T10:20:16.620Z,0.98
2023-01-02T10:21:50.407Z,0.99
2023-01-02T10:23:21.740Z,1.34
2023-01-02T10:24:53.066Z,1.29
2023-01-02T10:26:24.669Z,1.48
2023-01-02T10:27:56.004Z,1.86
2023-01-02T10:29:27.320Z,1.82
2023-01-02T10:31:03.960Z,1.62
2023-01-02T10:32:38.287Z,1.54
2023-01-02T10:34:09.770Z,1.02
2023-01-02T10:35:41.030Z,1.41
2023-01-02T10:37:12.416Z,1.55
2023-01-02T10:38:43.715Z,1.66
2023-01-02T10:40:15.050Z,1.59
2023-01-02T10:41:46.338Z,1.82
2023-01-02T10:43:18.869Z,1.78
2023-01-02T10:44:50.163Z,1.48
2023-01-02T10:46:21.768Z,1.55
2023-01-02T10:47:53.094Z,1.92
2023-01-02T10:49:24.435Z,1.74
2023-01-02T10:50:55.726Z,1.43
2023-01-02T10:52:27.048Z,1.43
2023-01-02T10:53:58.581Z,1.67
2023-01-02T10:55:29.855Z,1.66
2023-01-02T10:57:01.401Z,1.88
2023-01-02T10:58:32.697Z,1.63
2023-01-02T11:00:03.925Z,1.68
2023-01-02T11:01:35.784Z,2.15
2023-01-02T11:03:07.327Z,2.93
2023-01-02T11:04:38.664Z,3.61
2023-01-02T11:06:26.086Z,3.69
2023-01-02T11:07:58.138Z,4.75
2023-01-02T11:09:29.572Z,3.77
2023-01-02T11:11:01.579Z,4.40
2023-01-02T11:12:32.900Z,4.19
2023-01-02T11:14:04.209Z,5.24
2023-01-02T11:15:35.549Z,5.20
2023-01-02T11:17:07.064Z,5.13
2023-01-02T11:18:38.515Z,5.28
2023-01-02T11:20:09.913Z,5.96
2023-01-02T11:21:41.251Z,6.03
2023-01-02T11:23:12.558Z,5.48
2023-01-02T11:24:43.931Z,5.34
2023-01-02T11:26:15.245Z,5.63
2023-01-02T11:27:46.520Z,4.86
2023-01-02T11:29:17.862Z,4.89
2023-01-02T11:30:49.196Z,5.06
2023-01-02T11:32:20.533Z,6.34
2023-01-02T11:33:52.447Z,6.26
2023-01-02T11:35:23.869Z,5.75
2023-01-02T11:36:55.372Z,6.31
2023-01-02T11:38:26.748Z,6.02
2023-01-02T11:40:01.855Z,6.44
2023-01-02T11:41:33.284Z,7.20
2023-01-02T11:43:04.779Z,7.31
2023-01-02T11:44:36.018Z,6.71
2023-01-02T11:46:07.481Z,7.52
2023-01-02T11:47:38.971Z,7.63
2023-01-02T11:49:10.260Z,7.30
2023-01-02T11:50:41.770Z,7.05
2023-01-02T11:52:13.352Z,7.68
2023-01-02T11:53:44.651Z,7.32
2023-01-02T11:55:15.935Z,7.71
2023-01-02T11:56:47.509Z,6.13
2023-01-02T11:58:18.766Z,7.77
2023-01-02T11:59:50.069Z,8.47
2023-01-02T12:01:21.618Z,8.20
2023-01-02T12:02:53.412Z,7.16
2023-01-02T12:04:24.829Z,5.64
2023-01-02T12:05:56.149Z,6.47
2023-01-02T12:07:27.453Z,7.82
2023-01-02T12:08:59.181Z,8.08
2023-01-02T12:10:30.844Z,7.87
2023-01-02T12:12:02.209Z,7.82
2023-01-02T12:13:33.551Z,7.69
2023-01-02T12:15:05.115Z,6.42
2023-01-02T12:16:36.570Z,7.42
2023-01-02T12:18:08.055Z,7.52
2023-01-02T12:19:39.372Z,7.81
2023-01-02T12:21:10.686Z,6.62
2023-01-02T12:22:41.926Z,7.06
2023-01-02T12:24:13.235Z,7.68
2023-01-02T12:25:44.711Z,7.69
2023-01-02T12:27:16.384Z,7.13
2023-01-02T12:28:47.836Z,7.63
2023-01-02T12:30:19.273Z,8.01
2023-01-02T12:31:52.794Z,8.34
2023-01-02T12:33:24.247Z,8.23
2023-01-02T12:34:55.806Z,8.28
2023-01-02T12:36:27.492Z,8.04
2023-01-02T12:37:59.029Z,8.35
2023-01-02T12:39:30.528Z,8.11
2023-01-02T12:41:01.770Z,7.81
2023-01-02T12:42:33.075Z,6.23
2023-01-02T12:44:04.496Z,7.28
2023-01-02T12:45:35.879Z,7.32
2023-01-02T12:47:07.204Z,6.93
2023-01-02T12:48:38.604Z,7.24
2023-01-02T12:50:09.941Z,8.27
2023-01-02T12:51:41.323Z,7.00
2023-01-02T12:53:12.709Z,7.64
2023-01-02T12:54:44.174Z,8.06
2023-01-02T12:56:15.606Z,9.34
2023-01-02T12:57:48.048Z,6.86
2023-01-02T12:59:19.859Z,7.59
2023-01-02T13:00:51.510Z,7.00
2023-01-02T13:02:23.248Z,8.28
2023-01-02T13:03:55.027Z,7.60
2023-01-02T13:05:26.902Z,7.86
2023-01-02T13:06:58.322Z,5.83
2023-01-02T13:08:29.544Z,6.57
2023-01-02T13:10:01.008Z,7.15
2023-01-02T13:11:32.782Z,6.82
2023-01-02T13:13:04.179Z,6.44
2023-01-02T13:14:35.593Z,6.34
2023-01-02T13:16:15.005Z,6.23
2023-01-02T13:17:54.050Z,6.65
2023-01-02T13:19:25.707Z,6.97
2023-01-02T13:20:57.205Z,6.58
2023-01-02T13:22:28.712Z,5.95
2023-01-02T13:24:00.100Z,6.22
2023-01-02T13:25:31.491Z,6.37
2023-01-02T13:27:02.864Z,6.47
2023-01-02T13:28:39.748Z,6.31
2023-01-02T13:30:16.542Z,5.95
2023-01-02T13:31:51.341Z,5.46
2023-01-02T13:33:22.743Z,5.98
2023-01-02T13:34:54.258Z,6.00
2023-01-02T13:36:25.765Z,6.21
2023-01-02T13:37:57.073Z,6.02
2023-01-02T13:39:28.413Z,6.10
2023-01-02T13:41:00.205Z,6.28
2023-01-02T13:42:31.747Z,6.07
2023-01-02T13:44:03.062Z,6.69
2023-01-02T13:45:34.782Z,6.62
2023-01-02T13:47:06.146Z,6.53
2023-01-02T13:48:37.493Z,6.19
2023-01-02T13:50:08.791Z,6.09
2023-01-02T13:51:40.035Z,6.39
2023-01-02T13:53:11.594Z,6.55
2023-01-02T13:54:43.225Z,7.34
2023-01-02T13:56:14.655Z,6.55
2023-01-02T13:57:46.203Z,7.52
2023-01-02T13:59:42.083Z,7.51
2023-01-02T14:01:14.712Z,7.80
2023-01-02T14:02:46.308Z,7.35
2023-01-02T14:04:17.875Z,7.15
2023-01-02T14:05:49.165Z,6.75
2023-01-02T14:07:20.730Z,5.18
2023-01-02T14:08:52.132Z,6.73
2023-01-02T14:10:23.507Z,7.21
2023-01-02T14:11:55.558Z,7.17
2023-01-02T14:13:28.303Z,7.25
2023-01-02T14:14:59.636Z,6.97
2023-01-02T14:16:30.924Z,7.00
2023-01-02T14:18:02.326Z,6.22
2023-01-02T14:19:33.751Z,6.57
2023-01-02T14:21:05.147Z,6.65
2023-01-02T14:22:36.738Z,6.45
2023-01-02T14:24:16.816Z,6.39
2023-01-02T14:25:50.684Z,6.88
2023-01-02T14:27:22.210Z,5.84
2023-01-02T14:28:53.442Z,5.82
2023-01-02T14:30:24.970Z,6.26
2023-01-02T14:31:56.277Z,6.08
2023-01-02T14:33:27.788Z,6.48
2023-01-02T14:34:59.094Z,6.46
2023-01-02T14:36:30.439Z,6.55
2023-01-02T14:38:01.726Z,6.66
2023-01-02T14:39:33.315Z,6.43
2023-01-02T14:41:05.847Z,6.31
2023-01-02T14:42:37.319Z,5.90
2023-01-02T14:44:08.806Z,5.67
2023-01-02T14:45:40.231Z,5.42
2023-01-02T14:47:11.588Z,5.44
2023-01-02T14:48:43.085Z,5.96
2023-01-02T14:50:14.694Z,6.19
2023-01-02T14:51:46.064Z,6.34
2023-01-02T14:53:17.363Z,6.54
2023-01-02T14:54:48.989Z,6.13
2023-01-02T14:56:20.304Z,6.20
2023-01-02T14:57:51.689Z,6.72
2023-01-02T14:59:23.195Z,6.79
2023-01-02T15:00:59.106Z,6.84
2023-01-02T15:02:33.927Z,6.59
2023-01-02T15:04:05.341Z,6.76
2023-01-02T15:05:36.612Z,6.54
2023-01-02T15:07:10.009Z,6.97
2023-01-02T15:08:41.466Z,7.60
2023-01-02T15:10:12.747Z,7.02
2023-01-02T15:11:44.071Z,7.53
2023-01-02T15:13:20.476Z,7.92
2023-01-02T15:14:51.943Z,8.31
2023-01-02T15:16:23.413Z,8.05
2023-01-02T15:17:54.789Z,8.67
2023-01-02T15:19:26.313Z,8.94
2023-01-02T15:20:57.800Z,9.15
2023-01-02T15:22:29.285Z,8.91
2023-01-02T15:24:00.655Z,9.07
2023-01-02T15:25:31.924Z,9.38
2023-01-02T15:27:03.157Z,9.46
2023-01-02T15:28:34.412Z,9.03
2023-01-02T15:30:05.774Z,9.21
2023-01-02T15:31:37.083Z,8.63
2023-01-02T15:33:08.335Z,7.76
2023-01-02T15:34:44.694Z,8.69
2023-01-02T15:36:16.377Z,8.68
2023-01-02T15:38:30.919Z,7.88
2023-01-02T15:40:03.250Z,7.59
2023-01-02T15:41:35.655Z,8.31
2023-01-02T15:43:07.920Z,8.24
2023-01-02T15:44:40.327Z,8.91
2023-01-02T15:46:12.633Z,8.65
2023-01-02T15:47:45.227Z,8.31
2023-01-02T15:49:17.329Z,8.39
2023-01-02T15:50:49.385Z,8.44
2023-01-02T15:52:20.663Z,7.92
2023-01-02T15:53:52.282Z,8.11
2023-01-02T15:55:23.551Z,7.84
2023-01-02T15:56:54.890Z,8.18
2023-01-02T15:58:41.793Z,8.16
2023-01-02T16:00:13.110Z,7.90
2023-01-02T16:01:44.880Z,7.34
2023-01-02T16:03:16.329Z,6.60
2023-01-02T16:04:47.977Z,7.30
2023-01-02T16:06:19.429Z,7.34
2023-01-02T16:07:50.836Z,7.18
2023-01-02T16:09:22.152Z,7.48
2023-01-02T16:10:53.623Z,7.54
2023-01-02T16:12:25.135Z,7.83
2023-01-02T16:13:56.669Z,8.22
2023-01-02T16:15:27.983Z,8.02
2023-01-02T16:16:59.452Z,8.25
2023-01-02T16:18:30.833Z,8.47
2023-01-02T16:20:02.423Z,9.11
2023-01-02T16:21:35.047Z,8.52
2023-01-02T16:23:06.533Z,8.18
2023-01-02T16:24:38.119Z,7.75
2023-01-02T16:26:09.508Z,8.94
2023-01-02T16:27:40.851Z,8.60
2023-01-02T16:29:12.164Z,8.37
2023-01-02T16:30:43.509Z,8.86
2023-01-02T16:32:14.765Z,9.42
2023-01-02T16:33:46.220Z,9.15
2023-01-02T16:35:18.201Z,8.73
2023-01-02T16:36:49.617Z,8.72
2023-01-02T16:38:20.899Z,9.02
2023-01-02T16:39:52.250Z,9.61
2023-01-02T16:41:28.743Z,9.00
2023-01-02T16:43:00.062Z,9.45
2023-01-02T16:44:31.450Z,9.43
2023-01-02T16:46:02.726Z,9.17
2023-01-02T16:47:34.136Z,9.20
2023-01-02T16:49:05.729Z,9.34
2023-01-02T16:50:37.271Z,8.96
2023-01-02T16:52:08.638Z,7.53
2023-01-02T16:53:40.231Z,7.95
2023-01-02T16:55:11.640Z,7.92
2023-01-02T16:56:43.049Z,8.35
2023-01-02T16:58:14.641Z,8.22
2023-01-02T16:59:46.641Z,7.73
2023-01-02T17:01:18.153Z,7.62
2023-01-02T17:02:49.744Z,7.12
2023-01-02T17:04:21.092Z,6.17
2023-01-02T17:06:01.382Z,6.53
2023-01-02T17:07:34.225Z,6.84
2023-01-02T17:09:05.751Z,7.42
2023-01-02T17:10:37.200Z,6.97
2023-01-02T17:12:08.427Z,7.42
2023-01-02T17:13:39.665Z,7.28
2023-01-02T17:15:10.942Z,7.50
2023-01-02T17:16:42.312Z,7.46
2023-01-02T17:18:13.672Z,6.86
2023-01-02T17:19:45.055Z,6.55
2023-01-02T17:21:16.331Z,7.00
2023-01-02T17:22:47.626Z,6.84
2023-01-02T17:24:19.007Z,6.16
2023-01-02T17:25:50.393Z,3.78
2023-01-02T17:27:21.657Z,4.86
2023-01-02T17:28:52.936Z,5.47
2023-01-02T17:30:34.549Z,3.76
2023-01-02T17:32:06.306Z,4.47
2023-01-02T17:33:37.901Z,3.05
2023-01-02T17:35:09.318Z,3.39
2023-01-02T17:36:40.802Z,2.52
2023-01-02T17:38:12.333Z,2.39
2023-01-02T17:39:43.760Z,2.42
2023-01-02T17:41:15.025Z,3.02
2023-01-02T17:42:46.324Z,3.12
2023-01-02T17:44:17.593Z,2.52
2023-01-02T17:45:49.030Z,2.10
2023-01-02T17:47:59.373Z,2.46
2023-01-02T17:49:32.339Z,2.42
2023-01-02T17:51:03.497Z,2.37
2023-01-02T17:52:34.719Z,2.47
2023-01-02T17:54:05.993Z,2.48
2023-01-02T17:55:37.265Z,2.14
2023-01-02T17:57:08.711Z,1.88
2023-01-02T17:58:40.110Z,2.00
2023-01-02T18:00:11.332Z,1.64
2023-01-02T18:01:42.739Z,1.77
2023-01-02T18:03:14.379Z,1.36
2023-01-02T18:04:52.662Z,1.23
2023-01-02T18:06:26.242Z,1.42
2023-01-02T18:07:57.790Z,1.56
2023-01-02T18:09:29.169Z,1.22
2023-01-02T18:11:00.474Z,1.17
2023-01-02T18:12:31.824Z,1.33
2023-01-02T18:14:03.098Z,1.46
2023-01-02T18:15:34.473Z,1.47
2023-01-02T18:17:05.792Z,1.64
2023-01-02T18:18:37.066Z,1.23
2023-01-02T18:20:09.231Z,1.24
2023-01-02T18:21:40.712Z,1.29
2023-01-02T18:23:11.948Z,1.19
2023-01-02T18:24:43.193Z,1.56
2023-01-02T18:26:14.443Z,1.37
2023-01-02T18:27:45.839Z,1.28
2023-01-02T18:29:17.311Z,1.49
2023-01-02T18:30:49.823Z,1.41
2023-01-02T18:32:21.180Z,1.44
2023-01-02T18:33:52.466Z,1.42
2023-01-02T18:35:54.745Z,1.42
2023-01-02T18:37:26.729Z,1.47
2023-01-02T18:38:58.139Z,1.42
2023-01-02T18:40:34.823Z,1.44
2023-01-02T18:42:06.267Z,1.49
2023-01-02T18:43:37.527Z,1.59
2023-01-02T18:45:08.724Z,1.73
2023-01-02T18:47:03.205Z,1.94
2023-01-02T18:48:36.301Z,1.64
2023-01-02T18:50:07.490Z,1.69
2023-01-02T18:51:38.709Z,1.88
2023-01-02T18:53:10.171Z,1.83
2023-01-02T18:54:41.643Z,1.90
2023-01-02T18:56:13.140Z,1.85
2023-01-02T18:57:44.649Z,1.83
2023-01-02T18:59:16.106Z,2.15
2023-01-02T19:00:47.502Z,2.18
2023-01-02T19:02:19.086Z,2.50
2023-01-02T19:06:28.129Z,2.34
2023-01-02T19:08:58.905Z,2.08
2023-01-02T19:10:36.377Z,2.18
2023-01-02T19:12:09.092Z,2.47
2023-01-02T19:13:40.773Z,2.28
2023-01-02T19:15:12.335Z,2.02
2023-01-02T19:16:44.123Z,2.16
2023-01-02T19:18:16.087Z,2.35
2023-01-02T19:19:53.055Z,2.35
2023-01-02T19:21:29.707Z,2.30
2023-01-02T19:23:01.601Z,2.29
2023-01-02T19:24:33.129Z,2.77
2023-01-02T19:26:04.764Z,3.22
2023-01-02T19:28:15.063Z,2.90
2023-01-02T19:29:46.889Z,2.71
2023-01-02T19:31:18.264Z,3.21
2023-01-02T19:32:54.982Z,2.41
2023-01-02T19:34:26.757Z,2.42
2023-01-02T19:35:58.389Z,2.46
2023-01-02T19:37:29.851Z,2.99
2023-01-02T19:39:07.833Z,2.72
2023-01-02T19:40:40.591Z,3.34
2023-01-02T19:42:45.686Z,2.65
2023-01-02T19:44:50.011Z,3.08
2023-01-02T19:46:21.633Z,2.86
2023-01-02T19:47:58.368Z,2.90
2023-01-02T19:49:30.285Z,2.83
2023-01-02T19:51:01.964Z,3.26
2023-01-02T19:52:33.818Z,2.71
2023-01-02T19:54:05.071Z,3.65
2023-01-02T19:56:07.280Z,3.86
2023-01-02T19:58:06.316Z,3.12
2023-01-02T19:59:43.503Z,2.88
2023-01-02T20:01:15.888Z,3.76
2023-01-02T20:02:48.031Z,3.96
2023-01-02T20:04:19.896Z,4.44
2023-01-02T20:05:51.400Z,4.41
2023-01-02T20:07:41.404Z,3.45
2023-01-02T20:09:13.400Z,3.88
2023-01-02T20:10:45.209Z,4.16
2023-01-02T20:12:21.884Z,4.30
2023-01-02T20:13:53.767Z,4.20
2023-01-02T20:15:25.242Z,4.50
2023-01-02T20:16:57.050Z,4.21
2023-01-02T20:18:38.526Z,4.84
2023-01-02T20:20:15.039Z,4.07
2023-01-02T20:21:47.122Z,3.19
2023-01-02T20:23:18.748Z,3.92
2023-01-02T20:24:50.152Z,3.69
2023-01-02T20:26:21.578Z,3.31
2023-01-02T20:27:52.836Z,4.42
2023-01-02T20:29:24.158Z,4.90
2023-01-02T20:30:55.864Z,4.46
2023-01-02T20:32:32.804Z,4.77
2023-01-02T20:34:04.128Z,3.97
2023-01-02T20:35:40.325Z,3.37
2023-01-02T20:37:13.366Z,4.48
2023-01-02T20:40:37.561Z,5.02
2023-01-02T20:42:13.458Z,5.31
2023-01-02T20:44:09.334Z,4.81
2023-01-02T20:45:40.665Z,5.75
2023-01-02T20:47:19.031Z,5.56
2023-01-02T20:48:50.505Z,5.49
2023-01-02T20:50:28.029Z,5.60
2023-01-02T20:51:59.734Z,5.68
2023-01-02T20:53:31.094Z,6.55
2023-01-02T20:55:02.759Z,5.55
2023-01-02T20:56:34.241Z,3.99
2023-01-02T20:58:05.418Z,6.96
2023-01-02T20:59:36.932Z,5.89
2023-01-02T21:01:08.463Z,6.46
2023-01-02T21:02:55.109Z,6.30
2023-01-02T21:04:32.521Z,7.32
2023-01-02T21:06:08.380Z,7.34
2023-01-02T21:07:44.686Z,7.36